ローマ/フィウミチーノ の空港の天気 - METARとTAF

ローマ・レオナルド・ダ・ビンチ国際空港 ( LIRF / FCO ) - イタリア ローマ
飛行場実況気象(Metar)
観測時間08/05 04:20 CEST (08/05 02:20 UTC)
風向・風速北北西 2m/s
視程10km以上
天気現象
なし
気温20℃
湿度73%
気圧1007hPa
METARLIRF 050220Z 34003KT CAVOK 20/15 Q1007 NOSIG
過去の天気等 Google飛行場航空写真 Wunderground天気予報

過去48時間のMETAR

飛行場予報(TAF)
発表時間: 8/05 01:00 CEST (8/04 23:00 UTC)
予報対象時間: 5日2時 CEST ~ 6日8時 CEST
風向・風速北北東 5m/s
視程10km以上
全天の4割程度の雲 雲底高度 910m
5日2時 CEST ~ 5日5時 CEST に一時的に
天気現象雷雨
5日12時 CEST ~ 5日14時 CEST に徐々に
風向・風速西北西 8m/s
5日19時 CEST ~ 5日21時 CEST に徐々に
風向・風速北 6m/s
TAF LIRF 042300Z 0500/0606 02010KT 9999 SCT030
TEMPO 0500/0503 TSRA
BECMG 0510/0512 30015KT
BECMG 0517/0519 01012KT